TFM - Tactical Decision Aid (Experimental) INFO Settings
ID: Runway Winds: CIG/VIS Threshold: METAR Board: Map:

KDFW - Dallas/Fort Worth Intl

Updated at: 0712 UTC 23 Nov 2017
Latest TAF at: 0527 UTC 23 Nov 2017

TAF Board

Time0653Z23/08Z23/09Z23/10Z23/11Z23/12Z23/13Z23/14Z23/15Z23/16Z23/17Z23/18Z23/19Z23/20Z
TypeOBSPRVLPRVLPRVLPRVLPRVLPRVLPRVLPRVLPRVLPRVLPRVLPRVLPRVL
VIS10>6>6>6>6>6>6>6>6>6>6>6>6>6
CIG----------------------------
CoverCLRSKCSKCSKCSKCSKCSKCSKCSCTSCTSCTSCTSCTSCT
FltCatVFRVFRVFRVFRVFRVFRVFRVFRVFRVFRVFRVFRVFRVFR
WX----------------------------
WDirVRBVRBVRBVRBVRBVRBVRBVRB190190190190190190
WSpd03333333666666
WGst----------------------------
TAF
KDFW 230527Z 2306/2412 VRB03KT P6SM SKC
  FM231500 19006KT P6SM SCT300


METAR
KDFW 230653Z 00000KT 10SM CLR 06/M03 A3023 RMK AO2 SLP236 T00611033 $
KDFW 230553Z 23003KT 10SM CLR 06/M02 A3024 RMK AO2 SLP238 T00561022 10106 20056 401330050 58007 $

TAF/METAR Board Legend

Potential Impact
  None Marginal Slight Moderate High
Visibility (sm) >5 3≤X≤5 1≤X<3 0.5≤X<1 <0.5
Ceiling (100 ft) >30 10≤X≤30 4≤X<10 2≤X<4 <2
Wind Speed (kt) <10 10≤X<20 20≤X<30 ≥30
Wind Gust (kt) <15 15≤X<25 25≤X<35 ≥35
Weather No Wx Reported VCTS -TS,-FZRA TS,FZRA +TS,+FZRA




Page loaded:  07:12 UTC  |   11:12 PM Pacific  |   12:12 AM Mountain  |   01:12 AM Central  |   02:12 AM Eastern